createdAt,value
2018-01-08T00:00:14.782Z,9.90
2018-01-08T00:01:14.760Z,8.90
2018-01-08T00:02:14.817Z,9.60
2018-01-08T00:03:14.794Z,9.80
2018-01-08T00:04:14.751Z,10.80
2018-01-08T00:05:14.719Z,12.60
2018-01-08T00:06:14.731Z,10.40
2018-01-08T00:07:14.713Z,11.10
2018-01-08T00:08:14.695Z,11.70
2018-01-08T00:09:14.674Z,10.80
2018-01-08T00:10:14.613Z,12.10
2018-01-08T00:11:14.531Z,11.20
2018-01-08T00:12:14.541Z,11.20
2018-01-08T00:13:14.518Z,10.30
2018-01-08T00:14:14.495Z,11.50
2018-01-08T00:15:14.484Z,13.50
2018-01-08T00:16:14.426Z,11.60
2018-01-08T00:17:14.401Z,13.20
2018-01-08T00:18:14.421Z,10.20
2018-01-08T00:19:14.396Z,11.80
2018-01-08T00:20:14.344Z,12.60
2018-01-08T00:21:14.318Z,14.00
2018-01-08T00:22:14.335Z,12.00
2018-01-08T00:23:14.311Z,14.80
2018-01-08T00:24:14.258Z,11.70
2018-01-08T00:25:14.273Z,9.50
2018-01-08T00:26:14.232Z,10.80
2018-01-08T00:27:14.201Z,11.70
2018-01-08T00:28:14.176Z,9.50
2018-01-08T00:29:14.191Z,12.20
2018-01-08T00:30:14.153Z,9.50
2018-01-08T00:31:14.153Z,10.50
2018-01-08T00:32:14.128Z,9.90
2018-01-08T00:33:14.112Z,9.00
2018-01-08T00:34:14.052Z,9.60
2018-01-08T00:35:14.053Z,9.50
2018-01-08T00:36:14.012Z,12.40
2018-01-08T00:37:14.027Z,10.70
2018-01-08T00:38:13.973Z,12.70
2018-01-08T00:39:13.963Z,11.50
2018-01-08T00:40:13.930Z,8.90
2018-01-08T00:41:13.928Z,8.10
2018-01-08T00:42:13.925Z,9.40
2018-01-08T00:43:13.904Z,7.10
2018-01-08T00:44:13.850Z,9.00
2018-01-08T00:45:13.844Z,8.10
2018-01-08T00:46:13.839Z,9.00
2018-01-08T00:47:13.792Z,9.10
2018-01-08T00:48:13.767Z,7.70
2018-01-08T00:49:13.767Z,8.00
2018-01-08T00:50:13.761Z,8.10
2018-01-08T00:51:13.707Z,8.10
2018-01-08T00:52:13.692Z,8.50
2018-01-08T00:53:13.664Z,9.80
2018-01-08T00:54:13.667Z,7.50
2018-01-08T00:55:13.623Z,4.90
2018-01-08T00:56:13.606Z,5.10
2018-01-08T00:57:13.587Z,5.90
2018-01-08T00:58:13.569Z,6.00
2018-01-08T00:59:13.543Z,6.40
2018-01-08T01:00:13.559Z,6.70
2018-01-08T01:01:13.509Z,4.40
2018-01-08T01:02:13.513Z,5.10
2018-01-08T01:03:13.493Z,4.20
2018-01-08T01:04:13.443Z,4.00
2018-01-08T01:05:13.453Z,3.90
2018-01-08T01:06:13.407Z,5.30
2018-01-08T01:07:13.415Z,4.00
2018-01-08T01:08:13.395Z,3.90
2018-01-08T01:09:13.420Z,5.20
2018-01-08T01:10:13.350Z,3.50
2018-01-08T01:11:13.318Z,2.80
2018-01-08T01:12:13.310Z,3.20
2018-01-08T01:13:13.291Z,4.00
2018-01-08T01:14:13.282Z,5.90
2018-01-08T01:15:13.248Z,4.40
2018-01-08T01:16:13.197Z,4.50
2018-01-08T01:17:13.180Z,3.70
2018-01-08T01:18:13.189Z,3.90
2018-01-08T01:19:13.137Z,3.70
2018-01-08T01:20:13.118Z,4.30
2018-01-08T01:21:13.102Z,5.00
2018-01-08T01:22:13.077Z,5.90
2018-01-08T01:23:13.059Z,6.50
2018-01-08T01:24:13.034Z,6.00
2018-01-08T01:25:13.013Z,5.50
2018-01-08T01:26:12.990Z,5.80
2018-01-08T01:27:12.970Z,8.80
2018-01-08T01:28:12.950Z,7.40
2018-01-08T01:29:12.934Z,8.00
2018-01-08T01:30:12.949Z,8.10
2018-01-08T01:31:12.895Z,8.70
2018-01-08T01:32:12.867Z,7.00
2018-01-08T01:33:12.847Z,8.80
2018-01-08T01:34:12.859Z,8.20
2018-01-08T01:35:12.845Z,9.20
2018-01-08T01:36:12.792Z,11.00
2018-01-08T01:37:12.779Z,9.60
2018-01-08T01:38:12.779Z,12.00
2018-01-08T01:39:12.725Z,10.30
2018-01-08T01:40:12.700Z,10.70
2018-01-08T01:41:12.687Z,9.70
2018-01-08T01:42:12.661Z,11.10
2018-01-08T01:43:12.639Z,9.60
2018-01-08T01:44:12.622Z,10.80
2018-01-08T01:45:12.633Z,9.00
2018-01-08T01:46:12.580Z,11.80
2018-01-08T01:47:12.570Z,9.10
2018-01-08T01:48:12.537Z,9.70
2018-01-08T01:49:12.515Z,7.70
2018-01-08T01:50:12.528Z,13.50
2018-01-08T01:51:12.472Z,13.10
2018-01-08T01:52:12.484Z,12.50
2018-01-08T01:53:12.464Z,12.40
2018-01-08T01:54:12.417Z,11.30
2018-01-08T01:55:12.421Z,10.60
2018-01-08T01:56:12.403Z,10.70
2018-01-08T01:57:12.384Z,10.80
2018-01-08T01:58:12.330Z,12.10
2018-01-08T01:59:12.304Z,10.40
2018-01-08T02:00:12.288Z,11.50
2018-01-08T02:01:12.292Z,11.50
2018-01-08T02:02:12.250Z,10.30
2018-01-08T02:03:12.260Z,12.70
2018-01-08T02:04:12.211Z,11.80
2018-01-08T02:05:12.215Z,13.80
2018-01-08T02:06:12.174Z,12.40
2018-01-08T02:07:12.180Z,14.90
2018-01-08T02:08:12.120Z,12.90
2018-01-08T02:09:12.104Z,12.80
2018-01-08T02:10:12.117Z,14.00
2018-01-08T02:11:12.093Z,14.80
2018-01-08T02:12:12.041Z,13.50
2018-01-08T02:13:12.056Z,13.10
2018-01-08T02:14:12.000Z,12.90
2018-01-08T02:15:12.002Z,13.70
2018-01-08T02:16:11.974Z,17.10
2018-01-08T02:17:11.948Z,14.10
2018-01-08T02:18:11.929Z,13.80
2018-01-08T02:19:11.893Z,15.50
2018-01-08T02:20:11.876Z,15.90
2018-01-08T02:21:11.871Z,16.10
2018-01-08T02:22:11.853Z,17.40
2018-01-08T02:23:11.832Z,16.00
2018-01-08T02:24:11.809Z,15.60
2018-01-08T02:25:11.771Z,15.40
2018-01-08T02:26:11.750Z,15.80
2018-01-08T02:27:11.734Z,14.20
2018-01-08T02:28:11.707Z,15.90
2018-01-08T02:29:11.705Z,17.30
2018-01-08T02:30:12.208Z,16.20
2018-01-08T02:31:11.645Z,16.10
2018-01-08T02:32:11.629Z,15.60
2018-01-08T02:33:11.612Z,14.00
2018-01-08T02:34:11.625Z,14.70
2018-01-08T02:35:11.599Z,12.70
2018-01-08T02:36:11.581Z,16.30
2018-01-08T02:37:11.543Z,14.50
2018-01-08T02:38:11.538Z,17.60
2018-01-08T02:39:11.489Z,11.90
2018-01-08T02:40:11.496Z,14.50
2018-01-08T02:41:11.452Z,15.20
2018-01-08T02:42:11.422Z,14.30
2018-01-08T02:43:11.424Z,13.30
2018-01-08T02:44:11.401Z,11.40
2018-01-08T02:45:11.357Z,14.30
2018-01-08T02:46:11.351Z,13.30
2018-01-08T02:47:11.360Z,13.60
2018-01-08T02:48:11.328Z,15.90
2018-01-08T02:49:11.279Z,14.00
2018-01-08T02:50:11.268Z,14.00
2018-01-08T02:51:11.233Z,14.90
2018-01-08T02:52:11.251Z,16.60
2018-01-08T02:53:11.195Z,15.10
2018-01-08T02:54:11.206Z,12.50
2018-01-08T02:55:11.191Z,14.50
2018-01-08T02:56:11.162Z,14.90
2018-01-08T02:57:11.105Z,12.60
2018-01-08T02:58:11.088Z,14.60
2018-01-08T02:59:11.105Z,15.00
2018-01-08T03:00:11.048Z,15.60
2018-01-08T03:01:11.028Z,14.60
2018-01-08T03:02:11.041Z,14.70
2018-01-08T03:03:11.021Z,13.70
2018-01-08T03:04:10.969Z,14.50
2018-01-08T03:05:10.962Z,13.50
2018-01-08T03:06:10.943Z,14.90
2018-01-08T03:07:10.938Z,20.20
2018-01-08T03:08:10.917Z,15.60
2018-01-08T03:09:10.882Z,14.20
2018-01-08T03:10:10.841Z,13.90
2018-01-08T03:11:10.854Z,12.70
2018-01-08T03:12:10.809Z,16.40
2018-01-08T03:13:10.818Z,16.10
2018-01-08T03:14:10.795Z,14.90
2018-01-08T03:15:10.760Z,16.70
2018-01-08T03:16:10.737Z,15.00
2018-01-08T03:17:10.706Z,14.00
2018-01-08T03:18:10.697Z,15.40
2018-01-08T03:19:10.658Z,16.20
2018-01-08T03:20:10.676Z,14.50
2018-01-08T03:21:10.621Z,13.60
2018-01-08T03:22:10.599Z,12.90
2018-01-08T03:23:10.579Z,8.30
2018-01-08T03:24:10.592Z,14.00
2018-01-08T03:25:10.570Z,15.00
2018-01-08T03:26:10.545Z,13.70
2018-01-08T03:27:10.495Z,13.70
2018-01-08T03:28:10.495Z,14.10
2018-01-08T03:29:10.457Z,14.70
2018-01-08T03:30:10.467Z,11.30
2018-01-08T03:31:10.412Z,18.30
2018-01-08T03:32:10.422Z,12.90
2018-01-08T03:33:10.424Z,14.80
2018-01-08T03:34:10.347Z,15.80
2018-01-08T03:35:10.344Z,13.10
2018-01-08T03:36:10.312Z,11.00
2018-01-08T03:37:10.298Z,12.10
2018-01-08T03:38:10.307Z,13.20
2018-01-08T03:39:10.243Z,10.70
2018-01-08T03:40:10.244Z,9.60
2018-01-08T03:41:10.201Z,14.80
2018-01-08T03:42:10.220Z,13.20
2018-01-08T03:43:10.160Z,11.80
2018-01-08T03:44:10.144Z,11.30
2018-01-08T03:45:10.159Z,13.40
2018-01-08T03:46:10.100Z,10.00
2018-01-08T03:47:10.098Z,11.50
2018-01-08T03:48:10.064Z,12.00
2018-01-08T03:49:10.040Z,12.00
2018-01-08T03:50:10.054Z,10.30
2018-01-08T03:51:09.998Z,10.90
2018-01-08T03:52:09.977Z,10.40
2018-01-08T03:53:09.962Z,17.20
2018-01-08T03:54:09.968Z,11.90
2018-01-08T03:55:09.914Z,13.50
2018-01-08T03:56:09.896Z,13.80
2018-01-08T03:57:09.914Z,12.50
2018-01-08T03:58:09.857Z,11.90
2018-01-08T03:59:09.833Z,14.80
2018-01-08T04:00:09.846Z,11.00
2018-01-08T04:01:09.811Z,12.30
2018-01-08T04:02:09.782Z,12.70
2018-01-08T04:03:09.753Z,12.30
2018-01-08T04:04:09.771Z,13.40
2018-01-08T04:05:09.709Z,14.10
2018-01-08T04:06:09.722Z,14.70
2018-01-08T04:07:09.689Z,14.40
2018-01-08T04:08:09.684Z,16.70
2018-01-08T04:09:09.661Z,11.60
2018-01-08T04:10:09.643Z,13.20
2018-01-08T04:11:09.586Z,14.80
2018-01-08T04:12:09.566Z,12.10
2018-01-08T04:13:09.586Z,13.40
2018-01-08T04:14:09.556Z,14.20
2018-01-08T04:15:09.535Z,12.30
2018-01-08T04:16:09.523Z,15.80
2018-01-08T04:17:09.483Z,15.00
2018-01-08T04:18:09.475Z,11.50
2018-01-08T04:19:09.425Z,14.40
2018-01-08T04:20:09.438Z,12.00
2018-01-08T04:21:09.391Z,12.80
2018-01-08T04:22:09.392Z,12.90
2018-01-08T04:23:09.359Z,13.20
2018-01-08T04:24:09.340Z,14.50
2018-01-08T04:25:09.301Z,11.80
2018-01-08T04:26:09.315Z,14.20
2018-01-08T04:27:09.293Z,12.80
2018-01-08T04:28:09.273Z,14.20
2018-01-08T04:29:09.237Z,13.40
2018-01-08T04:30:09.194Z,13.30
2018-01-08T04:31:09.190Z,14.50
2018-01-08T04:32:09.168Z,13.70
2018-01-08T04:33:09.138Z,11.70
2018-01-08T04:34:09.128Z,12.80
2018-01-08T04:35:09.094Z,11.00
2018-01-08T04:36:09.085Z,12.60
2018-01-08T04:37:09.069Z,13.50
2018-01-08T04:38:09.035Z,15.70
2018-01-08T04:39:09.010Z,12.60
2018-01-08T04:40:08.988Z,14.20
2018-01-08T04:41:09.004Z,10.40
2018-01-08T04:42:08.946Z,13.00
2018-01-08T04:43:08.929Z,9.80
2018-01-08T04:44:08.927Z,10.70
2018-01-08T04:45:08.887Z,10.00
2018-01-08T04:46:08.863Z,15.00
2018-01-08T04:47:08.875Z,11.90
2018-01-08T04:48:08.860Z,13.10
2018-01-08T04:49:08.806Z,11.90
2018-01-08T04:50:08.801Z,12.20
2018-01-08T04:51:08.796Z,10.90
2018-01-08T04:52:08.748Z,11.50
2018-01-08T04:53:08.716Z,11.30
2018-01-08T04:54:08.718Z,12.70
2018-01-08T04:55:08.733Z,10.80
2018-01-08T04:56:08.690Z,12.40
2018-01-08T04:57:08.655Z,10.60
2018-01-08T04:58:08.650Z,11.10
2018-01-08T04:59:08.602Z,11.90
2018-01-08T05:00:08.576Z,11.00
2018-01-08T05:01:08.558Z,12.40
2018-01-08T05:02:08.539Z,12.30
2018-01-08T05:03:08.548Z,11.00
2018-01-08T05:04:08.492Z,10.40
2018-01-08T05:05:08.519Z,11.30
2018-01-08T05:06:08.466Z,10.40
2018-01-08T05:07:08.470Z,12.40
2018-01-08T05:08:08.444Z,11.10
2018-01-08T05:09:08.422Z,11.20
2018-01-08T05:10:08.383Z,10.30
2018-01-08T05:11:08.350Z,9.00
2018-01-08T05:12:08.331Z,11.00
2018-01-08T05:13:08.307Z,9.80
2018-01-08T05:14:08.285Z,11.90
2018-01-08T05:15:08.285Z,11.40
2018-01-08T05:16:08.264Z,12.60
2018-01-08T05:17:08.227Z,10.70
2018-01-08T05:18:08.206Z,13.20
2018-01-08T05:19:08.185Z,12.50
2018-01-08T05:20:08.196Z,8.60
2018-01-08T05:21:08.141Z,10.30
2018-01-08T05:22:08.155Z,9.40
2018-01-08T05:23:08.103Z,11.20
2018-01-08T05:24:08.104Z,10.90
2018-01-08T05:25:08.062Z,9.90
2018-01-08T05:26:08.040Z,11.00
2018-01-08T05:27:08.021Z,8.50
2018-01-08T05:28:08.035Z,11.90
2018-01-08T05:29:07.982Z,12.80
2018-01-08T05:30:07.974Z,15.70
2018-01-08T05:31:07.973Z,9.30
2018-01-08T05:32:07.953Z,10.70
2018-01-08T05:33:07.900Z,10.50
2018-01-08T05:34:07.913Z,12.00
2018-01-08T05:35:07.859Z,10.30
2018-01-08T05:36:07.872Z,9.00
2018-01-08T05:37:08.188Z,10.00
2018-01-08T05:38:07.797Z,9.90
2018-01-08T05:39:07.807Z,9.90
2018-01-08T05:40:07.769Z,8.70
2018-01-08T05:41:07.740Z,10.60
2018-01-08T05:42:07.747Z,9.80
2018-01-08T05:43:08.266Z,9.40
2018-01-08T05:44:07.707Z,12.10
2018-01-08T05:45:07.665Z,11.80
2018-01-08T05:46:07.632Z,12.90
2018-01-08T05:47:07.646Z,11.60
2018-01-08T05:48:07.629Z,10.30
2018-01-08T05:49:07.572Z,10.80
2018-01-08T05:50:07.555Z,11.90
2018-01-08T05:51:07.564Z,11.00
2018-01-08T05:52:07.509Z,11.90
2018-01-08T05:53:07.519Z,12.70
2018-01-08T05:54:07.500Z,11.50
2018-01-08T05:55:07.481Z,12.00
2018-01-08T05:56:07.426Z,8.10
2018-01-08T05:57:07.445Z,9.80
2018-01-08T05:58:07.384Z,8.90
2018-01-08T05:59:07.366Z,11.70
2018-01-08T06:00:07.364Z,13.10
2018-01-08T06:01:07.349Z,11.90
2018-01-08T06:02:07.321Z,12.70
2018-01-08T06:03:07.285Z,9.80
2018-01-08T06:04:07.280Z,9.90
2018-01-08T06:05:07.261Z,12.60
2018-01-08T06:06:07.213Z,9.30
2018-01-08T06:07:07.218Z,10.90
2018-01-08T06:08:07.195Z,12.30
2018-01-08T06:09:07.192Z,12.90
2018-01-08T06:10:07.145Z,11.80
2018-01-08T06:11:07.148Z,8.70
2018-01-08T06:12:07.128Z,10.70
2018-01-08T06:13:07.092Z,9.40
2018-01-08T06:14:07.075Z,9.90
2018-01-08T06:15:07.031Z,10.80
2018-01-08T06:16:07.047Z,10.60
2018-01-08T06:17:06.990Z,11.00
2018-01-08T06:18:06.980Z,10.10
2018-01-08T06:19:06.984Z,9.10
2018-01-08T06:20:06.972Z,9.40
2018-01-08T06:21:06.932Z,12.70
2018-01-08T06:22:06.929Z,9.90
2018-01-08T06:23:06.889Z,9.10
2018-01-08T06:24:06.852Z,11.20
2018-01-08T06:25:06.861Z,15.90
2018-01-08T06:26:06.843Z,9.20
2018-01-08T06:27:06.789Z,8.60
2018-01-08T06:28:06.767Z,9.20
2018-01-08T06:29:06.750Z,9.80
2018-01-08T06:30:06.762Z,9.10
2018-01-08T06:31:06.712Z,9.20
2018-01-08T06:32:06.685Z,10.60
2018-01-08T06:33:06.683Z,8.90
2018-01-08T06:34:06.645Z,10.80
2018-01-08T06:35:06.658Z,11.80
2018-01-08T06:36:06.602Z,9.80
2018-01-08T06:37:06.582Z,9.70
2018-01-08T06:38:06.596Z,11.00
2018-01-08T06:39:06.556Z,9.10
2018-01-08T06:40:06.536Z,11.70
2018-01-08T06:41:06.523Z,10.70
2018-01-08T06:42:06.493Z,10.10
2018-01-08T06:43:06.482Z,10.50
2018-01-08T06:44:06.442Z,10.20
2018-01-08T06:45:06.418Z,8.90
2018-01-08T06:46:06.393Z,10.50
2018-01-08T06:47:06.411Z,11.10
2018-01-08T06:48:06.357Z,10.10
2018-01-08T06:49:06.339Z,9.00
2018-01-08T06:50:06.349Z,12.00
2018-01-08T06:51:06.320Z,10.80
2018-01-08T06:52:06.304Z,11.90
2018-01-08T06:53:06.270Z,10.80
2018-01-08T06:54:06.230Z,10.80
2018-01-08T06:55:06.223Z,12.20
2018-01-08T06:56:06.189Z,11.40
2018-01-08T06:57:06.173Z,9.60
2018-01-08T06:58:06.149Z,9.90
2018-01-08T06:59:06.160Z,9.00
2018-01-08T07:00:06.110Z,11.60
2018-01-08T07:01:06.118Z,12.10
2018-01-08T07:02:06.100Z,10.60
2018-01-08T07:03:06.082Z,11.90
2018-01-08T07:04:06.028Z,11.60
2018-01-08T07:05:06.023Z,12.70
2018-01-08T07:06:06.019Z,11.70
2018-01-08T07:07:05.966Z,12.50
2018-01-08T07:08:05.977Z,10.50
2018-01-08T07:09:05.954Z,13.50
2018-01-08T07:10:05.919Z,10.70
2018-01-08T07:11:05.880Z,12.40
2018-01-08T07:12:05.895Z,12.80
2018-01-08T07:13:05.837Z,10.80
2018-01-08T07:14:05.820Z,12.00
2018-01-08T07:15:05.806Z,12.80
2018-01-08T07:16:05.778Z,13.10
2018-01-08T07:17:05.791Z,12.40
2018-01-08T07:18:05.740Z,13.20
2018-01-08T07:19:05.749Z,13.10
2018-01-08T07:20:05.728Z,15.60
2018-01-08T07:21:05.711Z,12.60
2018-01-08T07:22:05.690Z,13.30
2018-01-08T07:23:05.633Z,14.50
2018-01-08T07:24:05.635Z,11.00
2018-01-08T07:25:05.610Z,13.20
2018-01-08T07:26:05.597Z,10.50
2018-01-08T07:27:05.555Z,11.40
2018-01-08T07:28:05.533Z,15.90
2018-01-08T07:29:05.527Z,11.70
2018-01-08T07:30:05.491Z,13.00
2018-01-08T07:31:05.474Z,13.30
2018-01-08T07:32:05.492Z,12.40
2018-01-08T07:33:05.438Z,13.60
2018-01-08T07:34:05.430Z,11.40
2018-01-08T07:35:05.429Z,11.30
2018-01-08T07:36:05.373Z,12.80
2018-01-08T07:37:05.370Z,12.20
2018-01-08T07:38:05.363Z,9.90
2018-01-08T07:39:05.346Z,12.70
2018-01-08T07:40:05.305Z,10.10
2018-01-08T07:41:05.270Z,13.30
2018-01-08T07:42:05.248Z,15.50
2018-01-08T07:43:05.263Z,11.70
2018-01-08T07:44:05.249Z,11.00
2018-01-08T07:45:05.189Z,10.40
2018-01-08T07:46:05.170Z,11.50
2018-01-08T07:47:05.186Z,11.60
2018-01-08T07:48:05.159Z,11.40
2018-01-08T07:49:05.114Z,10.80
2018-01-08T07:50:05.086Z,13.20
2018-01-08T07:51:05.100Z,12.10
2018-01-08T07:52:05.081Z,12.80
2018-01-08T07:53:05.025Z,15.50
2018-01-08T07:54:05.005Z,13.50
2018-01-08T07:55:04.985Z,11.10
2018-01-08T07:56:04.960Z,12.10
2018-01-08T07:57:04.962Z,12.50
2018-01-08T07:58:04.940Z,11.40
2018-01-08T07:59:04.919Z,14.40
2018-01-08T08:00:04.914Z,11.40
2018-01-08T08:01:04.876Z,13.80
2018-01-08T08:02:04.876Z,15.70
2018-01-08T08:03:04.856Z,14.50
2018-01-08T08:04:04.808Z,12.70
2018-01-08T08:05:04.798Z,13.80
2018-01-08T08:06:04.766Z,15.40
2018-01-08T08:07:04.740Z,15.40
2018-01-08T08:08:04.733Z,18.20
2018-01-08T08:09:04.702Z,17.80
2018-01-08T08:10:04.682Z,14.40
2018-01-08T08:11:04.659Z,17.60
2018-01-08T08:12:04.672Z,16.80
2018-01-08T08:13:04.612Z,19.80
2018-01-08T08:14:04.642Z,21.70
2018-01-08T08:15:04.583Z,16.00
2018-01-08T08:16:04.555Z,21.50
2018-01-08T08:17:04.549Z,22.00
2018-01-08T08:18:04.532Z,18.70
2018-01-08T08:19:04.529Z,23.60
2018-01-08T08:20:04.497Z,22.70
2018-01-08T08:21:04.454Z,26.60
2018-01-08T08:22:04.431Z,24.00
2018-01-08T08:23:04.452Z,25.60
2018-01-08T08:24:04.960Z,25.20
2018-01-08T08:25:04.406Z,28.90
2018-01-08T08:26:04.384Z,25.00
2018-01-08T08:27:04.363Z,25.90
2018-01-08T08:28:04.310Z,25.90
2018-01-08T08:29:04.328Z,25.80
2018-01-08T08:30:04.280Z,21.50
2018-01-08T08:31:04.270Z,24.70
2018-01-08T08:32:04.263Z,24.70
2018-01-08T08:33:04.208Z,25.60
2018-01-08T08:34:04.186Z,27.50
2018-01-08T08:35:04.171Z,24.10
2018-01-08T08:36:04.167Z,26.30
2018-01-08T08:37:04.158Z,24.40
2018-01-08T08:38:04.101Z,26.20
2018-01-08T08:39:04.080Z,23.40
2018-01-08T08:40:04.098Z,22.60
2018-01-08T08:41:04.072Z,24.20
2018-01-08T08:42:04.019Z,19.30
2018-01-08T08:43:03.998Z,22.10
2018-01-08T08:44:03.974Z,22.50
2018-01-08T08:45:03.995Z,20.70
2018-01-08T08:46:03.970Z,23.80
2018-01-08T08:47:03.962Z,21.30
2018-01-08T08:48:03.929Z,22.20
2018-01-08T08:49:03.879Z,21.20
2018-01-08T08:50:03.890Z,25.90
2018-01-08T08:51:03.853Z,22.90
2018-01-08T08:52:03.815Z,26.90
2018-01-08T08:53:03.828Z,20.70
2018-01-08T08:54:03.774Z,24.10
2018-01-08T08:55:03.789Z,24.90
2018-01-08T08:56:03.734Z,27.20
2018-01-08T08:57:03.729Z,25.40
2018-01-08T08:58:03.725Z,23.90
2018-01-08T08:59:03.704Z,26.80
2018-01-08T09:00:03.667Z,25.90
2018-01-08T09:01:03.658Z,23.70
2018-01-08T09:02:03.641Z,29.40
2018-01-08T09:03:03.589Z,24.80
2018-01-08T09:04:03.600Z,25.50
2018-01-08T09:05:03.580Z,26.70
2018-01-08T09:06:03.566Z,29.00
2018-01-08T09:07:03.505Z,29.50
2018-01-08T09:08:03.522Z,28.50
2018-01-08T09:09:03.468Z,23.40
2018-01-08T09:10:03.476Z,26.20
2018-01-08T09:12:47.271Z,24.60
2018-01-08T09:13:47.192Z,27.20
2018-01-08T09:14:47.157Z,24.60
2018-01-08T09:15:47.172Z,25.20
2018-01-08T09:16:47.155Z,24.30
2018-01-08T09:17:47.132Z,24.90
2018-01-08T09:18:47.117Z,21.70
2018-01-08T09:19:47.087Z,25.50
2018-01-08T09:20:47.029Z,26.40
2018-01-08T09:21:47.013Z,29.50
2018-01-08T09:22:47.029Z,27.30
2018-01-08T09:23:47.009Z,22.60
2018-01-08T09:24:46.986Z,29.00
2018-01-08T09:25:46.935Z,25.70
2018-01-08T09:26:46.942Z,25.00
2018-01-08T09:27:46.910Z,24.80
2018-01-08T09:28:46.869Z,26.40
2018-01-08T09:29:46.884Z,24.80
2018-01-08T09:30:46.866Z,31.20
2018-01-08T09:31:46.814Z,28.50
2018-01-08T09:32:46.818Z,22.70
2018-01-08T09:33:46.774Z,22.50
2018-01-08T09:34:46.746Z,25.40
2018-01-08T09:35:46.763Z,23.40
2018-01-08T09:36:46.740Z,21.10
2018-01-08T09:37:46.700Z,27.00
2018-01-08T09:38:46.682Z,25.70
2018-01-08T09:39:46.677Z,26.10
2018-01-08T09:40:46.624Z,21.60
2018-01-08T09:41:46.598Z,24.50
2018-01-08T09:42:46.604Z,22.10
2018-01-08T09:43:46.579Z,24.10
2018-01-08T09:44:46.580Z,23.50
2018-01-08T09:45:46.539Z,23.10
2018-01-08T09:46:46.573Z,23.00
2018-01-08T09:47:46.520Z,25.30
2018-01-08T09:48:46.459Z,29.20
2018-01-08T09:49:46.438Z,24.80
2018-01-08T09:50:46.454Z,21.70
2018-01-08T09:51:46.398Z,19.70
2018-01-08T09:52:46.395Z,21.60
2018-01-08T09:53:46.391Z,24.30
2018-01-08T09:54:46.342Z,21.90
2018-01-08T09:55:46.334Z,19.00
2018-01-08T09:56:46.300Z,21.70
2018-01-08T09:57:46.299Z,19.10
2018-01-08T09:58:46.262Z,19.50
2018-01-08T09:59:46.244Z,17.90
2018-01-08T10:00:46.218Z,25.10
2018-01-08T10:01:46.197Z,23.60
2018-01-08T10:02:46.180Z,25.70
2018-01-08T10:03:46.158Z,21.60
2018-01-08T10:04:46.156Z,20.20
2018-01-08T10:05:46.118Z,17.40
2018-01-08T10:06:46.127Z,22.00
2018-01-08T10:07:46.074Z,16.30
2018-01-08T10:08:46.061Z,17.60
2018-01-08T10:09:46.068Z,17.20
2018-01-08T10:10:46.037Z,19.90
2018-01-08T10:11:46.002Z,20.20
2018-01-08T10:12:46.008Z,17.90
2018-01-08T10:13:45.990Z,16.40
2018-01-08T10:14:45.955Z,23.20
2018-01-08T10:15:45.916Z,18.80
2018-01-08T10:16:45.894Z,19.20
2018-01-08T10:17:45.872Z,17.70
2018-01-08T10:18:45.859Z,21.00
2018-01-08T10:19:45.856Z,20.40
2018-01-08T10:20:45.851Z,21.00
2018-01-08T10:21:45.801Z,25.10
2018-01-08T10:22:45.778Z,19.30
2018-01-08T10:23:45.757Z,17.90
2018-01-08T10:24:45.763Z,21.70
2018-01-08T10:25:45.752Z,20.20
2018-01-08T10:26:45.731Z,19.70
2018-01-08T10:27:45.678Z,21.10
2018-01-08T10:28:45.694Z,19.60
2018-01-08T10:29:45.646Z,20.20
2018-01-08T10:30:45.614Z,22.80
2018-01-08T10:31:45.627Z,19.20
2018-01-08T10:32:45.611Z,20.20
2018-01-08T10:33:45.590Z,20.70
2018-01-08T10:34:45.538Z,19.80
2018-01-08T10:35:45.518Z,20.60
2018-01-08T10:36:45.534Z,20.10
2018-01-08T10:37:45.510Z,21.00
2018-01-08T10:38:45.491Z,18.80
2018-01-08T10:39:45.436Z,21.80
2018-01-08T10:40:45.448Z,19.20
2018-01-08T10:41:45.397Z,20.50
2018-01-08T10:42:45.410Z,20.80
2018-01-08T10:43:45.356Z,18.20
2018-01-08T10:44:45.333Z,20.80
2018-01-08T10:45:45.309Z,19.50
2018-01-08T10:46:45.298Z,19.40
2018-01-08T10:47:45.276Z,21.50
2018-01-08T10:48:45.260Z,20.60
2018-01-08T10:49:45.238Z,21.70
2018-01-08T10:50:45.224Z,22.90
2018-01-08T10:51:45.230Z,22.90
2018-01-08T10:52:45.213Z,23.50
2018-01-08T10:53:45.156Z,25.80
2018-01-08T10:54:45.172Z,23.50
2018-01-08T10:55:45.139Z,18.70
2018-01-08T10:56:45.129Z,24.80
2018-01-08T10:57:45.114Z,23.80
2018-01-08T10:58:45.067Z,27.30
2018-01-08T10:59:45.041Z,21.30
2018-01-08T11:00:45.032Z,22.30
2018-01-08T11:01:45.035Z,19.30
2018-01-08T11:02:44.982Z,21.10
2018-01-08T11:03:44.973Z,25.90
2018-01-08T11:04:44.969Z,23.50
2018-01-08T11:05:44.936Z,23.50
2018-01-08T11:06:44.944Z,16.70
2018-01-08T11:07:44.903Z,21.40
2018-01-08T11:08:44.892Z,22.40
2018-01-08T11:09:44.842Z,24.60
2018-01-08T11:10:44.855Z,27.10
2018-01-08T11:11:44.802Z,23.40
2018-01-08T11:12:44.787Z,25.80
2018-01-08T11:13:44.792Z,25.30
2018-01-08T11:14:44.777Z,24.40
2018-01-08T11:15:44.754Z,21.10
2018-01-08T11:16:44.737Z,24.30
2018-01-08T11:17:44.718Z,19.20
2018-01-08T11:18:44.695Z,21.80
2018-01-08T11:19:44.680Z,23.60
2018-01-08T11:20:44.620Z,19.70
2018-01-08T11:21:44.621Z,22.00
2018-01-08T11:22:44.583Z,19.90
2018-01-08T11:23:44.562Z,21.10
2018-01-08T11:24:44.550Z,23.80
2018-01-08T11:25:44.525Z,22.20
2018-01-08T11:26:44.513Z,21.30
2018-01-08T11:27:44.491Z,24.30
2018-01-08T11:28:44.504Z,24.70
2018-01-08T11:29:44.482Z,26.80
2018-01-08T11:30:44.434Z,20.60
2018-01-08T11:31:44.446Z,23.10
2018-01-08T11:32:44.425Z,27.10
2018-01-08T11:33:44.372Z,30.50
2018-01-08T11:34:44.356Z,28.90
2018-01-08T11:35:44.336Z,25.30
2018-01-08T11:36:44.331Z,28.30
2018-01-08T11:37:44.296Z,25.10
2018-01-08T11:38:44.310Z,26.40
2018-01-08T11:39:44.292Z,26.10
2018-01-08T11:40:44.270Z,33.90
2018-01-08T11:41:44.254Z,31.50
2018-01-08T11:42:44.231Z,31.20
2018-01-08T11:43:44.183Z,30.90
2018-01-08T11:44:44.156Z,31.30
2018-01-08T11:45:44.160Z,34.80
2018-01-08T11:46:44.132Z,30.30
2018-01-08T11:47:44.133Z,30.90
2018-01-08T11:48:44.118Z,31.20
2018-01-08T11:49:44.060Z,28.80
2018-01-08T11:50:44.071Z,24.50
2018-01-08T11:51:44.052Z,26.30
2018-01-08T11:52:44.000Z,29.60
2018-01-08T11:53:44.016Z,23.60
2018-01-08T11:54:43.984Z,31.70
2018-01-08T11:55:43.944Z,29.10
2018-01-08T11:56:43.923Z,23.80
2018-01-08T11:57:43.905Z,20.80
2018-01-08T11:58:43.899Z,19.50
2018-01-08T11:59:43.871Z,21.40
2018-01-08T12:00:43.846Z,25.50
2018-01-08T12:01:43.840Z,28.80
2018-01-08T12:02:43.807Z,23.60
2018-01-08T12:03:43.789Z,22.20
2018-01-08T12:04:43.766Z,23.70
2018-01-08T12:05:43.747Z,24.40
2018-01-08T12:06:43.736Z,24.00
2018-01-08T12:07:43.727Z,26.90
2018-01-08T12:08:43.684Z,25.70
2018-01-08T12:09:43.672Z,28.30
2018-01-08T12:10:43.650Z,25.60
2018-01-08T12:11:43.634Z,29.60
2018-01-08T12:12:43.624Z,25.10
2018-01-08T12:13:43.616Z,20.80
2018-01-08T12:14:43.599Z,21.50
2018-01-08T12:15:43.553Z,20.10
2018-01-08T12:16:43.536Z,18.70
2018-01-08T12:17:43.542Z,19.70
2018-01-08T12:18:43.529Z,20.60
2018-01-08T12:19:43.479Z,18.30
2018-01-08T12:20:43.460Z,18.60
2018-01-08T12:22:16.649Z,19.40
2018-01-08T12:22:43.421Z,19.00
2018-01-08T12:23:43.434Z,17.50
2018-01-08T12:24:43.413Z,19.30
2018-01-08T12:25:43.370Z,17.30
2018-01-08T12:26:43.347Z,17.70
2018-01-08T12:27:43.361Z,17.70
2018-01-08T12:28:43.310Z,21.60
2018-01-08T12:29:43.297Z,19.60
2018-01-08T12:30:43.306Z,16.50
2018-01-08T12:31:43.254Z,15.80
2018-01-08T12:32:43.274Z,18.70
2018-01-08T12:33:43.218Z,18.80
2018-01-08T12:34:43.201Z,17.00
2018-01-08T12:35:43.187Z,14.60
2018-01-08T12:36:43.198Z,14.20
2018-01-08T12:37:43.149Z,14.40
2018-01-08T12:38:43.133Z,14.60
2018-01-08T12:39:43.134Z,14.10
2018-01-08T12:40:43.131Z,13.20
2018-01-08T12:41:43.079Z,15.80
2018-01-08T12:42:43.071Z,15.80
2018-01-08T12:43:43.077Z,18.60
2018-01-08T12:44:43.062Z,16.40
2018-01-08T12:45:43.011Z,19.40
2018-01-08T12:46:43.566Z,18.60
2018-01-08T12:47:43.007Z,20.30
2018-01-08T12:48:42.958Z,17.70
2018-01-08T12:49:42.939Z,16.30
2018-01-08T12:50:42.932Z,19.30
2018-01-08T12:51:42.908Z,20.00
2018-01-08T12:52:42.889Z,18.90
2018-01-08T12:53:42.905Z,19.20
2018-01-08T12:54:42.865Z,18.40
2018-01-08T12:55:42.868Z,19.20
2018-01-08T12:56:42.812Z,23.70
2018-01-08T12:57:42.830Z,19.50